AAL2720 KSAN-KCLT
Flight info
| Callsign | AAL2720 |
|---|---|
| Flight time | N/A |
| Altitude | 39000 |
| Route | ZZOOO4 GBN ONRTH KA24S CNX TXO ODOYU IRW HITMN TAZZA FILPZ4 |
| Aircraft | B772/H-SDE2E3FGHIJ5LORVWXY/LB1D1 |
Departure
| Time | 2026-04-26 18:08 |
|---|---|
| Airport | San Diego International Airport (KSAN) |
Arrival
| Time | N/A |
|---|---|
| Airport | Charlotte Douglas International Airport (KCLT) |
| Time | Latitude | Longitude | Altitude | Speed | Heading |
|---|---|---|---|---|---|
| 2026-04-26 17:23 | 32.73288 | -117.20174 | 25 ft | 0 kts | 86° |
| 2026-04-26 17:51 | 32.73287 | -117.20184 | 25 ft | 2 kts | 86° |
| 2026-04-26 17:51 | 32.73286 | -117.20201 | 25 ft | 2 kts | 86° |
| 2026-04-26 17:52 | 32.73285 | -117.20220 | 25 ft | 2 kts | 95° |
| 2026-04-26 17:52 | 32.73289 | -117.20237 | 25 ft | 2 kts | 122° |
| 2026-04-26 17:52 | 32.73299 | -117.20251 | 25 ft | 2 kts | 143° |
| 2026-04-26 17:52 | 32.73312 | -117.20259 | 25 ft | 2 kts | 165° |
| 2026-04-26 17:53 | 32.73327 | -117.20262 | 25 ft | 2 kts | 169° |
| 2026-04-26 17:53 | 32.73341 | -117.20266 | 25 ft | 2 kts | 171° |
| 2026-04-26 17:53 | 32.73356 | -117.20268 | 25 ft | 2 kts | 175° |
| 2026-04-26 17:54 | 32.73385 | -117.20269 | 25 ft | 2 kts | 183° |
| 2026-04-26 17:54 | 32.73399 | -117.20267 | 25 ft | 2 kts | 187° |
| 2026-04-26 17:54 | 32.73414 | -117.20265 | 25 ft | 2 kts | 191° |
| 2026-04-26 17:54 | 32.73428 | -117.20261 | 25 ft | 2 kts | 195° |
| 2026-04-26 17:55 | 32.73443 | -117.20256 | 25 ft | 2 kts | 199° |
| 2026-04-26 17:55 | 32.73456 | -117.20252 | 25 ft | 2 kts | 182° |
| 2026-04-26 17:55 | 32.73470 | -117.20253 | 25 ft | 2 kts | 159° |
| 2026-04-26 17:55 | 32.73483 | -117.20262 | 25 ft | 2 kts | 136° |
| 2026-04-26 17:56 | 32.73492 | -117.20276 | 25 ft | 2 kts | 113° |
| 2026-04-26 17:56 | 32.73499 | -117.20307 | 25 ft | 0 kts | 104° |
| 2026-04-26 17:59 | 32.73499 | -117.20304 | 25 ft | 1 kts | 103° |
| 2026-04-26 18:00 | 32.73499 | -117.20270 | 25 ft | 6 kts | 76° |
| 2026-04-26 18:00 | 32.73531 | -117.20215 | 25 ft | 9 kts | 57° |
| 2026-04-26 18:00 | 32.73537 | -117.20137 | 25 ft | 11 kts | 107° |
| 2026-04-26 18:00 | 32.73508 | -117.20023 | 25 ft | 18 kts | 107° |
| 2026-04-26 18:01 | 32.73467 | -117.19850 | 25 ft | 25 kts | 106° |
| 2026-04-26 18:01 | 32.73418 | -117.19648 | 25 ft | 26 kts | 105° |
| 2026-04-26 18:01 | 32.73365 | -117.19441 | 28 ft | 26 kts | 107° |
| 2026-04-26 18:01 | 32.73319 | -117.19244 | 28 ft | 17 kts | 105° |
| 2026-04-26 18:02 | 32.73283 | -117.19095 | 27 ft | 19 kts | 107° |
| 2026-04-26 18:02 | 32.73258 | -117.18990 | 27 ft | 20 kts | 105° |
| 2026-04-26 18:02 | 32.73205 | -117.18767 | 26 ft | 22 kts | 105° |
| 2026-04-26 18:02 | 32.73161 | -117.18584 | 25 ft | 23 kts | 105° |
| 2026-04-26 18:03 | 32.73114 | -117.18398 | 25 ft | 24 kts | 107° |
| 2026-04-26 18:03 | 32.73074 | -117.18233 | 25 ft | 12 kts | 105° |
| 2026-04-26 18:03 | 32.73050 | -117.18131 | 25 ft | 13 kts | 106° |
| 2026-04-26 18:03 | 32.73021 | -117.18014 | 25 ft | 15 kts | 107° |
| 2026-04-26 18:04 | 32.72990 | -117.17892 | 27 ft | 15 kts | 107° |
| 2026-04-26 18:04 | 32.72960 | -117.17769 | 29 ft | 15 kts | 105° |
| 2026-04-26 18:04 | 32.72949 | -117.17705 | 30 ft | 3 kts | 93° |
| 2026-04-26 18:05 | 32.72950 | -117.17690 | 30 ft | 0 kts | 88° |
| 2026-04-26 18:06 | 32.72950 | -117.17683 | 30 ft | 2 kts | 86° |
| 2026-04-26 18:06 | 32.72956 | -117.17644 | 30 ft | 7 kts | 72° |
| 2026-04-26 18:06 | 32.72988 | -117.17588 | 31 ft | 8 kts | 27° |
| 2026-04-26 18:07 | 32.73027 | -117.17615 | 32 ft | 2 kts | 292° |
| 2026-04-26 18:07 | 32.73029 | -117.17625 | 32 ft | 0 kts | 286° |
| 2026-04-26 18:07 | 32.73061 | -117.17754 | 31 ft | 43 kts | 287° |
| 2026-04-26 18:07 | 32.73148 | -117.18107 | 26 ft | 88 kts | 286° |
| 2026-04-26 18:08 | 32.73466 | -117.19416 | 59 ft | 152 kts | 287° |
| 2026-04-26 18:08 | 32.73774 | -117.20623 | 631 ft | 152 kts | 287° |
| 2026-04-26 18:08 | 32.74064 | -117.21819 | 1262 ft | 153 kts | 285° |
| 2026-04-26 18:08 | 32.74372 | -117.23104 | 1576 ft | 169 kts | 285° |
| 2026-04-26 18:09 | 32.74707 | -117.24503 | 1928 ft | 185 kts | 285° |
| 2026-04-26 18:09 | 32.75071 | -117.26022 | 2362 ft | 200 kts | 284° |
| 2026-04-26 18:09 | 32.75468 | -117.27685 | 2778 ft | 215 kts | 284° |
| 2026-04-26 18:09 | 32.75889 | -117.29439 | 3248 ft | 226 kts | 284° |
| 2026-04-26 18:10 | 32.76321 | -117.31235 | 3848 ft | 230 kts | 284° |
| 2026-04-26 18:10 | 32.76653 | -117.33061 | 4418 ft | 232 kts | 269° |
| 2026-04-26 18:10 | 32.76325 | -117.34866 | 4979 ft | 232 kts | 242° |
| 2026-04-26 18:10 | 32.75290 | -117.36312 | 5590 ft | 234 kts | 215° |
| 2026-04-26 18:11 | 32.73801 | -117.36999 | 6194 ft | 238 kts | 188° |
| 2026-04-26 18:11 | 32.72172 | -117.36744 | 6808 ft | 243 kts | 160° |
| 2026-04-26 18:11 | 32.70806 | -117.35545 | 7439 ft | 249 kts | 136° |
| 2026-04-26 18:11 | 32.69693 | -117.33993 | 8085 ft | 249 kts | 133° |
| 2026-04-26 18:12 | 32.68607 | -117.32433 | 8700 ft | 249 kts | 133° |
| 2026-04-26 18:12 | 32.67520 | -117.30868 | 9301 ft | 249 kts | 133° |
| 2026-04-26 18:12 | 32.66435 | -117.29307 | 9885 ft | 249 kts | 132° |
| 2026-04-26 18:12 | 32.65324 | -117.27708 | 10469 ft | 250 kts | 131° |
| 2026-04-26 18:13 | 32.64231 | -117.26139 | 11053 ft | 251 kts | 131° |
| 2026-04-26 18:13 | 32.63306 | -117.24382 | 11641 ft | 256 kts | 111° |
| 2026-04-26 18:13 | 32.62934 | -117.22309 | 12017 ft | 269 kts | 100° |
| 2026-04-26 18:13 | 32.62783 | -117.20789 | 12179 ft | 281 kts | 99° |
| 2026-04-26 18:14 | 32.62506 | -117.17613 | 12457 ft | 302 kts | 98° |
| 2026-04-26 18:14 | 32.62280 | -117.15078 | 12649 ft | 318 kts | 98° |
| 2026-04-26 18:14 | 32.62089 | -117.12450 | 12815 ft | 333 kts | 94° |
| 2026-04-26 18:14 | 32.62293 | -117.09656 | 12960 ft | 351 kts | 82° |
| 2026-04-26 18:15 | 32.63005 | -117.06830 | 13078 ft | 368 kts | 72° |
| 2026-04-26 18:15 | 32.63957 | -117.03928 | 13297 ft | 378 kts | 71° |
| 2026-04-26 18:15 | 32.64914 | -117.01041 | 13712 ft | 382 kts | 71° |
| 2026-04-26 18:15 | 32.65856 | -116.98141 | 14184 ft | 384 kts | 73° |
| 2026-04-26 18:16 | 32.66501 | -116.95094 | 14660 ft | 384 kts | 84° |
| 2026-04-26 18:16 | 32.66801 | -116.88749 | 15771 ft | 387 kts | 91° |
| 2026-04-26 18:16 | 32.66878 | -116.85561 | 16345 ft | 390 kts | 91° |
| 2026-04-26 18:17 | 32.66953 | -116.82370 | 16880 ft | 393 kts | 91° |
| 2026-04-26 18:17 | 32.67029 | -116.79088 | 17431 ft | 396 kts | 91° |
| 2026-04-26 18:17 | 32.67103 | -116.75855 | 17948 ft | 400 kts | 92° |
| 2026-04-26 18:17 | 32.67124 | -116.72546 | 18460 ft | 402 kts | 95° |
| 2026-04-26 18:18 | 32.67062 | -116.69204 | 18983 ft | 406 kts | 95° |
| 2026-04-26 18:18 | 32.66997 | -116.65840 | 19499 ft | 409 kts | 95° |
| 2026-04-26 18:18 | 32.66935 | -116.62466 | 19994 ft | 413 kts | 95° |
| 2026-04-26 18:18 | 32.66875 | -116.59112 | 20479 ft | 417 kts | 95° |
| 2026-04-26 18:19 | 32.66814 | -116.55666 | 20967 ft | 421 kts | 96° |
| 2026-04-26 18:19 | 32.66753 | -116.52192 | 21447 ft | 424 kts | 96° |
| 2026-04-26 18:19 | 32.66692 | -116.48652 | 21923 ft | 428 kts | 96° |
| 2026-04-26 18:19 | 32.66629 | -116.45133 | 22388 ft | 432 kts | 96° |
| 2026-04-26 18:20 | 32.66678 | -116.41554 | 22849 ft | 440 kts | 90° |
| 2026-04-26 18:20 | 32.66985 | -116.37919 | 23311 ft | 445 kts | 89° |
| 2026-04-26 18:20 | 32.67319 | -116.34277 | 23718 ft | 450 kts | 89° |
| 2026-04-26 18:20 | 32.67545 | -116.31812 | 24013 ft | 453 kts | 89° |
| 2026-04-26 18:21 | 32.67999 | -116.26836 | 24585 ft | 459 kts | 90° |
| 2026-04-26 18:21 | 32.68342 | -116.23055 | 25012 ft | 463 kts | 90° |
| 2026-04-26 18:21 | 32.68687 | -116.19236 | 25425 ft | 468 kts | 90° |
| 2026-04-26 18:21 | 32.69029 | -116.15424 | 25914 ft | 471 kts | 90° |
| 2026-04-26 18:22 | 32.69376 | -116.11543 | 26376 ft | 474 kts | 90° |
| 2026-04-26 18:22 | 32.69721 | -116.07666 | 26742 ft | 479 kts | 90° |
| 2026-04-26 18:22 | 32.70071 | -116.03725 | 27116 ft | 484 kts | 90° |
| 2026-04-26 18:22 | 32.70431 | -115.99746 | 27543 ft | 488 kts | 90° |
| 2026-04-26 18:23 | 32.70806 | -115.95727 | 27968 ft | 492 kts | 90° |
| 2026-04-26 18:23 | 32.71179 | -115.91711 | 28352 ft | 496 kts | 90° |
| 2026-04-26 18:23 | 32.71558 | -115.87604 | 28736 ft | 501 kts | 90° |
| 2026-04-26 18:23 | 32.71938 | -115.83485 | 29082 ft | 505 kts | 90° |
| 2026-04-26 18:24 | 32.72316 | -115.79353 | 29479 ft | 509 kts | 90° |
| 2026-04-26 18:24 | 32.72699 | -115.75171 | 29897 ft | 511 kts | 90° |
| 2026-04-26 18:24 | 32.73081 | -115.70971 | 30380 ft | 512 kts | 90° |
| 2026-04-26 18:24 | 32.73459 | -115.66811 | 30893 ft | 512 kts | 90° |
| 2026-04-26 18:25 | 32.73840 | -115.62586 | 31328 ft | 514 kts | 90° |
| 2026-04-26 18:25 | 32.74218 | -115.58365 | 31720 ft | 517 kts | 90° |
| 2026-04-26 18:25 | 32.74597 | -115.54133 | 32181 ft | 518 kts | 90° |
| 2026-04-26 18:25 | 32.74974 | -115.49892 | 32712 ft | 516 kts | 91° |
| 2026-04-26 18:26 | 32.75160 | -115.45647 | 33148 ft | 514 kts | 95° |
| 2026-04-26 18:26 | 32.75233 | -115.41456 | 33515 ft | 516 kts | 95° |
| 2026-04-26 18:26 | 32.75306 | -115.37202 | 33968 ft | 517 kts | 95° |
| 2026-04-26 18:26 | 32.75386 | -115.32924 | 34415 ft | 518 kts | 95° |
| 2026-04-26 18:27 | 32.75469 | -115.28651 | 34859 ft | 518 kts | 95° |
| 2026-04-26 18:27 | 32.75555 | -115.24422 | 35307 ft | 517 kts | 95° |
| 2026-04-26 18:27 | 32.75642 | -115.20152 | 35777 ft | 516 kts | 95° |
| 2026-04-26 18:27 | 32.75730 | -115.15958 | 36260 ft | 514 kts | 95° |
| 2026-04-26 18:28 | 32.75819 | -115.11680 | 36612 ft | 514 kts | 95° |
| 2026-04-26 18:28 | 32.75905 | -115.07452 | 36882 ft | 516 kts | 95° |
| 2026-04-26 18:28 | 32.75992 | -115.03173 | 37072 ft | 520 kts | 95° |
| 2026-04-26 18:28 | 32.76078 | -114.98903 | 37231 ft | 524 kts | 95° |
| 2026-04-26 18:29 | 32.76164 | -114.94606 | 37431 ft | 526 kts | 95° |
| 2026-04-26 18:29 | 32.76252 | -114.90220 | 37723 ft | 526 kts | 95° |
| 2026-04-26 18:29 | 32.76337 | -114.85950 | 38066 ft | 525 kts | 94° |
| 2026-04-26 18:29 | 32.76421 | -114.81639 | 38376 ft | 524 kts | 95° |
| 2026-04-26 18:30 | 32.76504 | -114.77308 | 38611 ft | 524 kts | 95° |
| 2026-04-26 18:30 | 32.76585 | -114.72971 | 38834 ft | 524 kts | 95° |
| 2026-04-26 18:30 | 32.76664 | -114.68699 | 39060 ft | 524 kts | 95° |
| 2026-04-26 18:30 | 32.76743 | -114.64333 | 39109 ft | 526 kts | 95° |
| 2026-04-26 18:31 | 32.76887 | -114.55713 | 39112 ft | 525 kts | 95° |
| 2026-04-26 18:31 | 32.77007 | -114.47027 | 39115 ft | 527 kts | 95° |
| 2026-04-26 18:32 | 32.77122 | -114.38363 | 39113 ft | 526 kts | 95° |
| 2026-04-26 18:32 | 32.77230 | -114.29771 | 39099 ft | 525 kts | 95° |
| 2026-04-26 18:33 | 32.77334 | -114.21113 | 39099 ft | 526 kts | 95° |
| 2026-04-26 18:33 | 32.77431 | -114.12510 | 39103 ft | 524 kts | 95° |
| 2026-04-26 18:34 | 32.77522 | -114.03883 | 39099 ft | 524 kts | 95° |
| 2026-04-26 18:34 | 32.77879 | -113.95233 | 39106 ft | 532 kts | 86° |
| 2026-04-26 18:35 | 32.79094 | -113.86608 | 39104 ft | 533 kts | 85° |
| 2026-04-26 18:35 | 32.80352 | -113.77885 | 39107 ft | 535 kts | 85° |
| 2026-04-26 18:36 | 32.81589 | -113.69254 | 39108 ft | 533 kts | 85° |
| 2026-04-26 18:36 | 32.82821 | -113.60579 | 39109 ft | 534 kts | 85° |
| 2026-04-26 18:37 | 32.84044 | -113.51921 | 39110 ft | 533 kts | 85° |
| 2026-04-26 18:37 | 32.85263 | -113.43236 | 39111 ft | 534 kts | 85° |
| 2026-04-26 18:38 | 32.86478 | -113.34534 | 39112 ft | 533 kts | 86° |
| 2026-04-26 18:38 | 32.87680 | -113.25884 | 39099 ft | 533 kts | 86° |
| 2026-04-26 18:39 | 32.88882 | -113.17178 | 39102 ft | 533 kts | 85° |
| 2026-04-26 18:39 | 32.90072 | -113.08514 | 39103 ft | 532 kts | 85° |
| 2026-04-26 18:40 | 32.91254 | -112.99866 | 39105 ft | 533 kts | 85° |
| 2026-04-26 18:40 | 32.92442 | -112.91119 | 39105 ft | 538 kts | 85° |
| 2026-04-26 18:41 | 32.93637 | -112.82276 | 39106 ft | 541 kts | 85° |
| 2026-04-26 18:41 | 32.94822 | -112.73458 | 39110 ft | 544 kts | 85° |
| 2026-04-26 18:42 | 32.96331 | -112.64634 | 39118 ft | 547 kts | 76° |
| 2026-04-26 18:42 | 32.98544 | -112.55998 | 39112 ft | 546 kts | 75° |
| 2026-04-26 18:43 | 33.00754 | -112.47421 | 39113 ft | 544 kts | 75° |
| 2026-04-26 18:43 | 33.02963 | -112.38799 | 39111 ft | 542 kts | 75° |
| 2026-04-26 18:44 | 33.05130 | -112.30306 | 39093 ft | 540 kts | 75° |
| 2026-04-26 18:44 | 33.07307 | -112.21737 | 39093 ft | 538 kts | 75° |
| 2026-04-26 18:45 | 33.09441 | -112.13306 | 39094 ft | 536 kts | 75° |
| 2026-04-26 18:45 | 33.11554 | -112.04932 | 39087 ft | 534 kts | 75° |
| 2026-04-26 18:46 | 33.13681 | -111.96474 | 39088 ft | 533 kts | 75° |
| 2026-04-26 18:46 | 33.15793 | -111.88048 | 39089 ft | 534 kts | 74° |
| 2026-04-26 18:47 | 33.17882 | -111.79688 | 39093 ft | 534 kts | 74° |